Terminal Aerodrome Forecast
Issued by NWS Binghamton, NY

Home | Current Version | Previous Version | Text Only | Print | Product List | Glossary On
Versions: 1 2 3 4 5 6 7 8 9 10 11 12 13 14 15 16 17 18 19
090
FTUS41 KBGM 041736
TAFAVP
TAF
KAVP 041736Z 0418/0518 32007KT P6SM BKN040
     FM042200 VRB03KT P6SM SCT200
     FM050200 VRB03KT P6SM BKN080
     FM050600 14004KT 6SM -SN OVC035
     FM050800 17006KT 3SM -SN OVC015
     FM051100 19005KT P6SM -SN OVC022
     FM051700 27007KT P6SM BKN028=

USA.gov is the U.S. government's official web portal to all federal, state and local government web resources and services.